createdAt,value
2019-02-16T00:01:06.792Z,11.50
2019-02-16T00:03:38.414Z,10.70
2019-02-16T00:06:06.978Z,11.13
2019-02-16T00:08:35.522Z,11.47
2019-02-16T00:11:04.105Z,11.77
2019-02-16T00:13:32.666Z,10.77
2019-02-16T00:16:01.321Z,11.17
2019-02-16T00:18:29.941Z,11.33
2019-02-16T00:21:03.967Z,10.33
2019-02-16T00:23:28.799Z,11.27
2019-02-16T00:25:57.349Z,10.53
2019-02-16T00:28:27.630Z,11.07
2019-02-16T00:30:56.192Z,10.27
2019-02-16T00:33:24.772Z,11.13
2019-02-16T00:35:53.321Z,10.73
2019-02-16T00:38:21.803Z,11.23
2019-02-16T00:40:50.320Z,10.80
2019-02-16T00:43:18.871Z,10.90
2019-02-16T00:45:47.412Z,10.50
2019-02-16T00:48:15.995Z,10.90
2019-02-16T00:50:44.562Z,10.40
2019-02-16T00:53:13.190Z,10.37
2019-02-16T00:55:41.862Z,10.20
2019-02-16T00:58:10.429Z,9.43
2019-02-16T01:00:38.992Z,9.80
2019-02-16T01:03:07.532Z,10.83
2019-02-16T01:05:36.047Z,10.37
2019-02-16T01:08:07.470Z,10.80
2019-02-16T01:10:36.114Z,9.77
2019-02-16T01:13:06.780Z,10.17
2019-02-16T01:15:35.318Z,9.97
2019-02-16T01:18:03.973Z,10.30
2019-02-16T01:20:32.538Z,9.97
2019-02-16T01:23:02.619Z,9.63
2019-02-16T01:25:31.174Z,10.00
2019-02-16T01:27:59.720Z,10.27
2019-02-16T01:30:28.294Z,10.87
2019-02-16T01:32:56.840Z,10.57
2019-02-16T01:35:25.383Z,9.80
2019-02-16T01:37:53.885Z,10.47
2019-02-16T01:40:22.447Z,10.60
2019-02-16T01:42:50.978Z,11.27
2019-02-16T01:45:19.546Z,10.60
2019-02-16T01:47:48.977Z,10.27
2019-02-16T01:50:17.548Z,10.23
2019-02-16T01:52:46.021Z,9.80
2019-02-16T01:55:14.565Z,9.17
2019-02-16T01:57:43.989Z,8.87
2019-02-16T02:00:12.550Z,8.80
2019-02-16T02:02:41.107Z,9.00
2019-02-16T02:05:09.741Z,9.60
2019-02-16T02:07:38.527Z,9.07
2019-02-16T02:10:08.825Z,9.40
2019-02-16T02:12:38.405Z,10.00
2019-02-16T02:15:09.370Z,10.23
2019-02-16T02:17:37.929Z,9.13
2019-02-16T02:20:08.540Z,9.37
2019-02-16T02:22:37.177Z,9.87
2019-02-16T02:25:18.299Z,8.53
2019-02-16T02:27:47.152Z,8.93
2019-02-16T02:30:15.685Z,9.20
2019-02-16T02:32:44.270Z,8.00
2019-02-16T02:35:12.832Z,8.27
2019-02-16T02:37:41.401Z,8.20
2019-02-16T02:40:09.957Z,9.60
2019-02-16T02:42:38.576Z,8.73
2019-02-16T02:45:10.196Z,8.27
2019-02-16T02:47:38.761Z,8.17
2019-02-16T02:50:07.893Z,7.87
2019-02-16T02:52:36.456Z,8.60
2019-02-16T02:55:06.659Z,8.07
2019-02-16T02:57:35.239Z,8.00
2019-02-16T03:00:05.581Z,8.70
2019-02-16T03:02:34.170Z,8.03
2019-02-16T03:05:07.089Z,8.80
2019-02-16T03:07:37.272Z,8.83
2019-02-16T03:10:06.837Z,8.00
2019-02-16T03:12:38.086Z,8.60
2019-02-16T03:15:07.411Z,9.07
2019-02-16T03:17:35.980Z,9.17
2019-02-16T03:20:07.815Z,8.90
2019-02-16T03:23:04.689Z,9.00
2019-02-16T03:25:33.262Z,9.27
2019-02-16T03:28:24.590Z,8.83
2019-02-16T03:31:10.820Z,9.27
2019-02-16T03:33:42.472Z,9.73
2019-02-16T03:36:25.823Z,10.83
2019-02-16T03:38:57.807Z,10.03
2019-02-16T03:41:26.354Z,9.67
2019-02-16T03:43:56.140Z,9.80
2019-02-16T03:46:24.694Z,10.70
2019-02-16T03:48:53.272Z,9.90
2019-02-16T03:51:21.789Z,10.30
2019-02-16T03:53:50.331Z,9.90
2019-02-16T03:56:18.921Z,10.60
2019-02-16T03:58:47.394Z,10.10
2019-02-16T04:01:15.970Z,9.77
2019-02-16T04:03:44.677Z,9.57
2019-02-16T04:06:13.243Z,10.13
2019-02-16T04:08:41.925Z,9.83
2019-02-16T04:11:10.502Z,9.77
2019-02-16T04:13:39.046Z,9.53
2019-02-16T04:16:07.616Z,9.47
2019-02-16T04:18:36.183Z,9.10
2019-02-16T04:21:04.763Z,10.33
2019-02-16T04:23:33.308Z,9.57
2019-02-16T04:26:03.492Z,9.70
2019-02-16T04:28:32.085Z,10.10
2019-02-16T04:31:00.635Z,9.93
2019-02-16T04:33:29.225Z,9.50
2019-02-16T04:35:57.766Z,9.80
2019-02-16T04:38:29.262Z,8.60
2019-02-16T04:40:57.838Z,8.37
2019-02-16T04:43:29.292Z,8.53
2019-02-16T04:46:02.086Z,8.67
2019-02-16T04:48:30.656Z,8.57
2019-02-16T04:50:59.261Z,7.93
2019-02-16T04:53:27.831Z,8.50
2019-02-16T04:55:59.119Z,8.57
2019-02-16T04:58:27.684Z,8.57
2019-02-16T05:00:56.233Z,8.20
2019-02-16T05:03:24.810Z,8.13
2019-02-16T05:06:08.392Z,8.27
2019-02-16T05:08:56.756Z,8.77
2019-02-16T05:11:27.976Z,8.53
2019-02-16T05:14:06.886Z,9.03
2019-02-16T05:16:35.793Z,8.87
2019-02-16T05:19:04.334Z,8.67
2019-02-16T05:21:32.889Z,9.07
2019-02-16T05:24:01.456Z,9.17
2019-02-16T05:26:30.006Z,9.17
2019-02-16T05:28:58.851Z,9.30
2019-02-16T05:31:30.694Z,9.33
2019-02-16T05:33:59.473Z,8.83
2019-02-16T05:36:32.460Z,9.13
2019-02-16T05:39:01.029Z,8.97
2019-02-16T05:41:29.610Z,9.70
2019-02-16T05:44:03.855Z,9.00
2019-02-16T05:46:32.441Z,9.47
2019-02-16T05:49:00.980Z,9.77
2019-02-16T05:51:32.480Z,9.53
2019-02-16T05:54:01.038Z,9.73
2019-02-16T05:56:31.183Z,10.63
2019-02-16T05:59:00.666Z,9.67
2019-02-16T06:01:30.754Z,9.90
2019-02-16T06:04:06.586Z,9.90
2019-02-16T06:06:35.173Z,10.27
2019-02-16T06:09:04.849Z,9.50
2019-02-16T06:11:33.332Z,9.87
2019-02-16T06:14:01.892Z,10.20
2019-02-16T06:16:31.253Z,9.47
2019-02-16T06:18:59.801Z,9.60
2019-02-16T06:21:30.998Z,8.87
2019-02-16T06:23:59.559Z,9.23
2019-02-16T06:26:28.151Z,8.83
2019-02-16T06:28:56.695Z,8.73
2019-02-16T06:31:25.246Z,8.80
2019-02-16T06:33:54.477Z,8.43
2019-02-16T06:36:25.935Z,9.03
2019-02-16T06:38:56.045Z,8.63
2019-02-16T06:41:27.364Z,7.47
2019-02-16T06:43:55.936Z,7.97
2019-02-16T06:46:24.475Z,7.53
2019-02-16T06:48:53.125Z,7.73
2019-02-16T06:51:21.669Z,8.17
2019-02-16T06:53:53.169Z,8.03
2019-02-16T06:56:23.362Z,9.40
2019-02-16T06:58:55.152Z,9.00
2019-02-16T07:01:23.730Z,9.13
2019-02-16T07:03:52.268Z,8.90
2019-02-16T07:06:20.849Z,8.90
2019-02-16T07:08:50.361Z,9.57
2019-02-16T07:11:18.919Z,10.30
2019-02-16T07:13:47.493Z,9.50
2019-02-16T07:16:23.430Z,9.87
2019-02-16T07:18:53.645Z,9.33
2019-02-16T07:21:22.127Z,9.67
2019-02-16T07:23:50.699Z,9.27
2019-02-16T07:26:19.350Z,10.27
2019-02-16T07:28:47.935Z,9.40
2019-02-16T07:31:16.485Z,9.83
2019-02-16T07:33:45.031Z,9.50
2019-02-16T07:36:14.371Z,9.20
2019-02-16T07:38:42.919Z,10.20
2019-02-16T07:41:11.495Z,9.70
2019-02-16T07:43:51.024Z,9.73
2019-02-16T07:46:21.245Z,9.93
2019-02-16T07:48:51.357Z,9.70
2019-02-16T07:51:23.946Z,9.37
2019-02-16T07:53:54.228Z,10.40
2019-02-16T07:56:24.684Z,9.50
2019-02-16T07:58:54.886Z,9.77
2019-02-16T08:01:33.741Z,10.07
2019-02-16T08:04:07.965Z,9.70
2019-02-16T08:06:53.440Z,9.77
2019-02-16T08:09:26.452Z,10.60
2019-02-16T08:12:10.223Z,10.80
2019-02-16T08:14:45.866Z,10.60
2019-02-16T08:17:27.665Z,10.80
2019-02-16T08:20:06.593Z,11.17
2019-02-16T08:22:52.894Z,11.30
2019-02-16T08:25:29.131Z,11.20
2019-02-16T08:27:59.410Z,10.37
2019-02-16T08:30:38.503Z,11.70
2019-02-16T08:33:23.529Z,11.13
2019-02-16T08:35:53.820Z,11.27
2019-02-16T08:38:30.526Z,11.60
2019-02-16T08:41:17.282Z,11.20
2019-02-16T08:43:47.549Z,12.17
2019-02-16T08:46:24.769Z,11.93
2019-02-16T08:49:00.791Z,12.50
2019-02-16T08:51:36.112Z,12.77
2019-02-16T08:54:15.113Z,11.67
2019-02-16T08:56:53.914Z,12.57
2019-02-16T08:59:30.261Z,12.40
2019-02-16T09:02:15.273Z,13.10
2019-02-16T09:04:45.509Z,12.77
2019-02-16T09:07:30.466Z,12.50
2019-02-16T09:10:03.661Z,13.40
2019-02-16T09:12:33.894Z,12.67
2019-02-16T09:15:25.153Z,13.63
2019-02-16T09:17:58.128Z,13.77
2019-02-16T09:20:48.889Z,13.40
2019-02-16T09:23:21.767Z,13.73
2019-02-16T09:26:02.229Z,13.43
2019-02-16T09:28:39.637Z,13.87
2019-02-16T09:31:12.924Z,13.57
2019-02-16T09:33:43.120Z,12.47
2019-02-16T09:36:15.211Z,13.93
2019-02-16T09:38:50.194Z,14.07
2019-02-16T09:41:28.020Z,13.80
2019-02-16T09:44:10.386Z,13.37
2019-02-16T09:46:44.832Z,13.80
2019-02-16T09:49:23.996Z,14.23
2019-02-16T09:51:57.168Z,13.47
2019-02-16T09:54:39.083Z,13.63
2019-02-16T09:57:12.770Z,12.97
2019-02-16T09:59:58.168Z,14.50
2019-02-16T10:02:33.770Z,13.07
2019-02-16T10:05:26.207Z,13.90
2019-02-16T10:10:55.340Z,13.43
2019-02-16T10:13:26.380Z,13.90
2019-02-16T10:16:03.813Z,14.17
2019-02-16T10:18:51.468Z,13.77
2019-02-16T10:21:24.168Z,13.80
2019-02-16T10:24:18.018Z,13.63
2019-02-16T10:26:59.886Z,14.00
2019-02-16T10:29:46.134Z,13.30
2019-02-16T10:32:24.719Z,13.23
2019-02-16T10:35:06.493Z,12.60
2019-02-16T10:37:48.635Z,12.80
2019-02-16T10:40:24.373Z,13.50
2019-02-16T10:42:57.294Z,13.43
2019-02-16T10:45:27.493Z,13.00
2019-02-16T10:48:03.809Z,13.27
2019-02-16T10:50:36.786Z,12.67
2019-02-16T10:53:07.052Z,13.10
2019-02-16T10:55:40.005Z,13.30
2019-02-16T10:58:10.552Z,14.03
2019-02-16T11:00:49.656Z,12.83
2019-02-16T11:03:22.683Z,12.97
2019-02-16T11:05:56.387Z,12.57
2019-02-16T11:08:32.500Z,13.60
2019-02-16T11:11:05.471Z,13.60
2019-02-16T11:13:40.031Z,13.40
2019-02-16T11:16:32.640Z,13.77
2019-02-16T11:19:14.895Z,13.77
2019-02-16T11:21:51.833Z,13.40
2019-02-16T11:24:36.152Z,13.27
2019-02-16T11:27:18.031Z,13.30
2019-02-16T11:29:51.282Z,13.23
2019-02-16T11:32:21.961Z,13.03
2019-02-16T11:34:52.140Z,13.03
2019-02-16T11:37:34.203Z,12.13
2019-02-16T11:40:19.178Z,13.00
2019-02-16T11:43:07.327Z,12.03
2019-02-16T11:45:40.159Z,11.33
2019-02-16T11:48:13.084Z,11.47
2019-02-16T11:50:46.352Z,11.83
2019-02-16T11:53:34.835Z,13.20
2019-02-16T11:56:11.617Z,12.30
2019-02-16T11:58:47.507Z,12.60
2019-02-16T12:01:26.870Z,11.67
2019-02-16T12:04:02.947Z,12.53
2019-02-16T12:06:35.699Z,12.13
2019-02-16T12:09:10.291Z,12.10
2019-02-16T12:11:40.535Z,12.20
2019-02-16T12:14:17.835Z,11.47
2019-02-16T12:17:09.142Z,11.07
2019-02-16T12:19:59.354Z,11.77
2019-02-16T12:22:47.878Z,11.00
2019-02-16T12:25:20.785Z,10.80
2019-02-16T12:27:51.001Z,11.53
2019-02-16T12:30:26.839Z,10.60
2019-02-16T12:32:57.045Z,11.37
2019-02-16T12:35:36.295Z,10.40
2019-02-16T12:38:21.349Z,10.73
2019-02-16T12:40:54.513Z,11.40
2019-02-16T12:43:40.977Z,11.50
2019-02-16T12:46:18.107Z,11.30
2019-02-16T12:49:07.672Z,11.03
2019-02-16T12:51:46.762Z,10.50
2019-02-16T12:54:22.730Z,12.33
2019-02-16T12:56:55.931Z,12.27
2019-02-16T12:59:28.565Z,13.53
2019-02-16T13:02:04.259Z,10.57
2019-02-16T13:04:49.331Z,11.03
2019-02-16T13:07:25.281Z,12.57
2019-02-16T13:10:07.622Z,10.80
2019-02-16T13:12:49.617Z,12.20
2019-02-16T13:15:31.602Z,10.47
2019-02-16T13:18:04.759Z,10.97
2019-02-16T13:20:37.785Z,12.47
2019-02-16T13:23:13.458Z,13.67
2019-02-16T13:25:43.662Z,10.70
2019-02-16T13:28:17.160Z,12.57
2019-02-16T13:30:47.374Z,13.57
2019-02-16T13:33:17.672Z,11.90
2019-02-16T13:35:50.845Z,12.37
2019-02-16T13:38:23.933Z,12.43
2019-02-16T13:40:57.096Z,13.73
2019-02-16T13:43:27.983Z,12.47
2019-02-16T13:46:04.180Z,12.20
2019-02-16T13:48:34.446Z,12.40
2019-02-16T13:51:05.616Z,14.13
2019-02-16T13:53:44.411Z,13.03
2019-02-16T13:56:20.547Z,11.73
2019-02-16T13:59:00.760Z,13.90
2019-02-16T14:01:34.567Z,10.90
2019-02-16T14:04:10.353Z,11.90
2019-02-16T14:06:40.558Z,13.13
2019-02-16T14:09:10.831Z,13.10
2019-02-16T14:11:42.598Z,13.50
2019-02-16T14:14:24.739Z,13.40
2019-02-16T14:16:54.969Z,12.03
2019-02-16T14:19:25.678Z,13.70
2019-02-16T14:21:54.693Z,11.43
2019-02-16T14:24:39.680Z,13.03
2019-02-16T14:27:14.490Z,13.40
2019-02-16T14:29:44.599Z,14.23
2019-02-16T14:32:14.237Z,13.73
2019-02-16T14:34:45.451Z,13.67
2019-02-16T14:37:15.699Z,14.40
2019-02-16T14:39:44.560Z,13.33
2019-02-16T14:42:13.116Z,12.70
2019-02-16T14:44:42.491Z,12.97
2019-02-16T14:47:11.802Z,13.27
2019-02-16T14:49:40.369Z,13.17
2019-02-16T14:52:10.485Z,13.70
2019-02-16T14:54:39.024Z,12.20
2019-02-16T14:57:17.381Z,13.23
2019-02-16T14:59:46.570Z,13.20
2019-02-16T15:02:15.123Z,13.77
2019-02-16T15:04:43.698Z,13.17
2019-02-16T15:07:12.246Z,13.50
2019-02-16T15:09:40.796Z,13.27
2019-02-16T15:12:10.148Z,14.63
2019-02-16T15:14:38.764Z,14.33
2019-02-16T15:17:10.011Z,14.60
2019-02-16T15:19:50.527Z,15.23
2019-02-16T15:22:22.064Z,14.27
2019-02-16T15:24:53.720Z,14.67
2019-02-16T15:27:22.302Z,14.33
2019-02-16T15:29:50.862Z,14.47
2019-02-16T15:32:23.770Z,14.57
2019-02-16T15:34:52.382Z,14.93
2019-02-16T15:37:22.473Z,15.53
2019-02-16T15:39:51.108Z,15.00
2019-02-16T15:42:19.697Z,14.50
2019-02-16T15:44:48.258Z,15.17
2019-02-16T15:47:17.628Z,15.67
2019-02-16T15:49:48.999Z,15.40
2019-02-16T15:52:20.327Z,14.67
2019-02-16T15:54:48.892Z,14.17
2019-02-16T15:57:17.589Z,15.93
2019-02-16T15:59:46.172Z,16.17
2019-02-16T16:02:14.802Z,15.67
2019-02-16T16:04:43.393Z,16.80
2019-02-16T16:07:13.583Z,15.23
2019-02-16T16:09:54.436Z,15.63
2019-02-16T16:12:42.542Z,16.30
2019-02-16T16:15:28.688Z,16.13
2019-02-16T16:18:16.265Z,15.80
2019-02-16T16:20:52.786Z,16.37
2019-02-16T16:23:28.209Z,15.90
2019-02-16T16:26:08.289Z,16.90
2019-02-16T16:28:41.289Z,16.37
2019-02-16T16:31:11.690Z,17.50
2019-02-16T16:33:51.958Z,17.23
2019-02-16T16:36:22.344Z,17.73
2019-02-16T16:38:52.505Z,17.40
2019-02-16T16:41:38.874Z,17.93
2019-02-16T16:44:11.489Z,18.90
2019-02-16T16:46:44.666Z,16.00
2019-02-16T16:49:21.171Z,14.87
2019-02-16T16:51:53.843Z,13.73
2019-02-16T16:54:26.984Z,17.53
2019-02-16T16:57:00.211Z,15.10
2019-02-16T16:59:36.211Z,14.33
2019-02-16T17:02:06.982Z,14.43
2019-02-16T17:04:54.982Z,15.27
2019-02-16T17:07:39.188Z,15.13
2019-02-16T17:10:24.894Z,15.83
2019-02-16T17:12:55.161Z,16.07
2019-02-16T17:15:37.318Z,16.83
2019-02-16T17:18:10.530Z,17.33
2019-02-16T17:20:43.557Z,17.83
2019-02-16T17:23:24.099Z,17.40
2019-02-16T17:25:56.764Z,23.37
2019-02-16T17:28:43.226Z,21.10
2019-02-16T17:31:13.469Z,18.37
2019-02-16T17:33:49.453Z,18.53
2019-02-16T17:36:37.566Z,17.53
2019-02-16T17:39:11.036Z,18.00
2019-02-16T17:41:56.293Z,17.53
2019-02-16T17:44:29.050Z,18.13
2019-02-16T17:47:10.511Z,19.70
2019-02-16T17:49:43.577Z,17.33
2019-02-16T17:52:18.569Z,17.73
2019-02-16T17:54:48.388Z,16.97
2019-02-16T17:57:18.701Z,18.13
2019-02-16T17:59:58.134Z,17.23
2019-02-16T18:02:31.001Z,17.43
2019-02-16T18:05:07.188Z,17.63
2019-02-16T18:07:45.312Z,17.20
2019-02-16T18:10:22.336Z,17.33
2019-02-16T18:12:54.994Z,18.40
2019-02-16T18:15:35.749Z,17.53
2019-02-16T18:18:15.720Z,17.37
2019-02-16T18:20:49.395Z,17.83
2019-02-16T18:23:19.581Z,16.73
2019-02-16T18:25:52.395Z,16.47
2019-02-16T18:28:41.772Z,17.10
2019-02-16T18:31:11.959Z,16.33
2019-02-16T18:33:48.075Z,15.63
2019-02-16T18:36:28.783Z,16.50
2019-02-16T18:39:11.983Z,17.10
2019-02-16T18:41:57.897Z,16.93
2019-02-16T18:44:44.302Z,16.87
2019-02-16T18:47:14.463Z,17.00
2019-02-16T18:49:48.148Z,16.53
2019-02-16T18:52:18.336Z,15.87
2019-02-16T18:54:48.916Z,17.33
2019-02-16T18:57:19.195Z,17.77
2019-02-16T19:00:09.107Z,17.67
2019-02-16T19:02:59.110Z,17.33
2019-02-16T19:05:33.017Z,17.10
2019-02-16T19:08:06.079Z,17.27
2019-02-16T19:10:42.049Z,18.10
2019-02-16T19:13:28.260Z,16.63
2019-02-16T19:16:01.334Z,17.93
2019-02-16T19:18:37.390Z,18.23
2019-02-16T19:21:10.202Z,18.77
2019-02-16T19:23:40.429Z,18.37
2019-02-16T19:26:10.666Z,18.30
2019-02-16T19:28:40.859Z,17.93
2019-02-16T19:31:13.497Z,17.90
2019-02-16T19:33:55.413Z,19.20
2019-02-16T19:36:25.935Z,19.80
2019-02-16T19:38:56.132Z,19.00
2019-02-16T19:41:35.868Z,18.77
2019-02-16T19:44:06.151Z,20.27
2019-02-16T19:46:39.040Z,18.53
2019-02-16T19:49:18.871Z,19.73
2019-02-16T19:51:53.770Z,19.53
2019-02-16T19:54:44.216Z,18.37
2019-02-16T19:57:26.683Z,19.43
2019-02-16T19:59:51.549Z,19.73
2019-02-16T20:02:24.855Z,20.70
2019-02-16T20:05:01.114Z,18.83
2019-02-16T20:07:49.144Z,19.97
2019-02-16T20:10:20.395Z,20.57
2019-02-16T20:13:02.269Z,20.20
2019-02-16T20:15:47.619Z,20.57
2019-02-16T20:18:17.836Z,20.07
2019-02-16T20:20:50.729Z,20.13
2019-02-16T20:23:23.684Z,19.93
2019-02-16T20:25:55.510Z,21.00
2019-02-16T20:28:41.699Z,21.03
2019-02-16T20:31:46.399Z,20.30
2019-02-16T20:34:28.553Z,21.43
2019-02-16T20:36:58.814Z,20.40
2019-02-16T20:39:28.988Z,20.37
2019-02-16T20:42:05.148Z,20.27
2019-02-16T20:44:38.293Z,20.90
2019-02-16T20:47:17.370Z,18.97
2019-02-16T20:49:48.539Z,20.83
2019-02-16T20:52:18.732Z,20.57
2019-02-16T20:54:54.768Z,20.77
2019-02-16T20:57:47.307Z,21.00
2019-02-16T21:00:16.847Z,21.80
2019-02-16T21:02:56.247Z,20.13
2019-02-16T21:05:29.570Z,20.87
2019-02-16T21:08:17.595Z,21.70
2019-02-16T21:10:47.996Z,20.67
2019-02-16T21:13:33.164Z,20.13
2019-02-16T21:16:11.507Z,20.53
2019-02-16T21:18:42.637Z,21.13
2019-02-16T21:21:27.647Z,21.67
2019-02-16T21:24:03.829Z,21.13
2019-02-16T21:26:37.163Z,20.87
2019-02-16T21:29:26.825Z,20.93
2019-02-16T21:32:17.103Z,20.90
2019-02-16T21:34:53.254Z,20.30
2019-02-16T21:37:43.031Z,21.07
2019-02-16T21:40:27.801Z,20.03
2019-02-16T21:42:58.006Z,21.40
2019-02-16T21:45:28.140Z,21.07
2019-02-16T21:48:01.290Z,21.70
2019-02-16T21:50:49.826Z,20.70
2019-02-16T21:53:21.740Z,20.10
2019-02-16T21:55:51.352Z,20.53
2019-02-16T21:58:21.562Z,20.97
2019-02-16T22:01:02.740Z,21.33
2019-02-16T22:03:33.325Z,20.67
2019-02-16T22:06:20.166Z,21.13
2019-02-16T22:09:20.466Z,21.17
2019-02-16T22:11:53.135Z,20.47
2019-02-16T22:14:21.688Z,20.53
2019-02-16T22:16:50.300Z,20.73
2019-02-16T22:19:18.881Z,20.50
2019-02-16T22:21:47.456Z,20.13
2019-02-16T22:24:16.103Z,20.57
2019-02-16T22:26:52.975Z,21.27
2019-02-16T22:29:21.556Z,20.77
2019-02-16T22:31:51.763Z,21.07
2019-02-16T22:34:28.532Z,20.80
2019-02-16T22:36:57.103Z,20.83
2019-02-16T22:39:28.028Z,20.07
2019-02-16T22:41:56.612Z,20.33
2019-02-16T22:44:34.083Z,20.13
2019-02-16T22:47:02.530Z,20.40
2019-02-16T22:49:31.112Z,20.87
2019-02-16T22:52:06.862Z,20.83
2019-02-16T22:54:35.414Z,20.97
2019-02-16T22:57:04.024Z,20.30
2019-02-16T22:59:32.633Z,20.07
2019-02-16T23:02:01.284Z,20.47
2019-02-16T23:04:29.919Z,20.63
2019-02-16T23:06:58.529Z,20.67
2019-02-16T23:09:27.642Z,20.07
2019-02-16T23:12:01.372Z,20.33
2019-02-16T23:14:30.353Z,21.13
2019-02-16T23:16:59.000Z,20.73
2019-02-16T23:19:27.585Z,20.40
2019-02-16T23:21:57.099Z,20.47
2019-02-16T23:24:27.227Z,20.30
2019-02-16T23:26:57.488Z,20.87
2019-02-16T23:29:27.705Z,20.87
2019-02-16T23:31:56.343Z,20.23
2019-02-16T23:34:24.878Z,20.27
2019-02-16T23:36:53.455Z,20.80
2019-02-16T23:39:22.005Z,20.20
2019-02-16T23:41:50.550Z,21.60
2019-02-16T23:44:19.181Z,21.57
2019-02-16T23:46:51.491Z,20.37
2019-02-16T23:49:19.494Z,20.83
2019-02-16T23:51:50.750Z,21.40
2019-02-16T23:54:20.869Z,21.33
2019-02-16T23:56:49.425Z,21.20
2019-02-16T23:59:34.366Z,20.77
